Upper Providence, Pennsylvania
Current Conditions -  °F | °C
As of 7:54 AM on Saturday 25 Oct 2014 (Local Time) from KPHL Reporting Station
Few Clouds Few Clouds  
Wind Chill: 45°   Ceiling: Unl
Heat Index: 48°   Visibility: 10mi
Dew Point: 38°   Wind: 6mph
Humidity: 68%   Direction: 280°W
Pressure: 29.93"   Gusts: NA
Location:  39.9207°N, 75.4181°W
Report Text: KPHL 251154Z 28005KT 10SM FEW250 09/03 A2993 RMK AO2 SLP134 T00890033 10128 20078 53003
Loading
Personal Weather Stations






























Interactive Weather Map
Tropical Storm Tracking
New forecast layout! Learn more

10-Day Weather Forecast

Advertisements
Track Severe Weather on mobile